createdAt,value
2023-01-29T00:00:58.665Z,0.00
2023-01-29T00:01:58.667Z,0.00
2023-01-29T00:02:58.678Z,0.00
2023-01-29T00:03:58.585Z,0.00
2023-01-29T00:04:59.140Z,0.00
2023-01-29T00:05:58.577Z,0.00
2023-01-29T00:06:58.564Z,0.00
2023-01-29T00:07:58.576Z,0.00
2023-01-29T00:08:58.513Z,0.00
2023-01-29T00:09:58.542Z,0.00
2023-01-29T00:10:58.503Z,0.00
2023-01-29T00:11:58.503Z,0.00
2023-01-29T00:12:58.500Z,0.00
2023-01-29T00:13:58.473Z,0.00
2023-01-29T00:14:58.481Z,0.00
2023-01-29T00:15:58.531Z,0.00
2023-01-29T00:16:58.519Z,0.00
2023-01-29T00:17:58.430Z,0.00
2023-01-29T00:18:58.433Z,0.00
2023-01-29T00:19:58.450Z,0.00
2023-01-29T00:20:58.413Z,0.00
2023-01-29T00:21:58.436Z,0.00
2023-01-29T00:22:58.397Z,0.00
2023-01-29T00:23:58.426Z,0.00
2023-01-29T00:24:58.431Z,0.00
2023-01-29T00:25:58.375Z,0.00
2023-01-29T00:26:58.342Z,0.00
2023-01-29T00:27:58.440Z,0.00
2023-01-29T00:28:58.319Z,0.00
2023-01-29T00:29:58.327Z,0.00
2023-01-29T00:30:58.424Z,0.00
2023-01-29T00:31:58.349Z,0.00
2023-01-29T00:32:58.288Z,0.00
2023-01-29T00:33:58.272Z,0.00
2023-01-29T00:34:58.265Z,0.00
2023-01-29T00:35:58.252Z,0.00
2023-01-29T00:36:58.235Z,0.00
2023-01-29T00:37:58.231Z,0.00
2023-01-29T00:38:58.208Z,0.00
2023-01-29T00:39:58.240Z,0.00
2023-01-29T00:40:58.192Z,0.00
2023-01-29T00:41:58.176Z,0.00
2023-01-29T00:42:58.172Z,0.00
2023-01-29T00:43:58.157Z,0.00
2023-01-29T00:44:58.168Z,0.00
2023-01-29T00:45:58.145Z,0.00
2023-01-29T00:46:58.182Z,0.00
2023-01-29T00:47:58.149Z,0.00
2023-01-29T00:49:00.642Z,0.00
2023-01-29T00:49:58.152Z,0.00
2023-01-29T00:50:58.118Z,0.00
2023-01-29T00:51:58.079Z,0.00
2023-01-29T00:52:58.141Z,0.00
2023-01-29T00:53:58.055Z,0.00
2023-01-29T00:54:58.079Z,0.00
2023-01-29T00:55:58.051Z,0.00
2023-01-29T00:56:58.046Z,0.00
2023-01-29T00:57:58.023Z,0.00
2023-01-29T00:58:58.019Z,0.00
2023-01-29T00:59:58.029Z,0.00
2023-01-29T01:00:58.029Z,0.00
2023-01-29T01:01:57.983Z,0.00
2023-01-29T01:02:57.978Z,0.00
2023-01-29T01:03:57.954Z,0.00
2023-01-29T01:04:57.969Z,0.00
2023-01-29T01:05:57.943Z,0.00
2023-01-29T01:06:57.943Z,0.00
2023-01-29T01:07:57.931Z,0.00
2023-01-29T01:08:57.936Z,0.00
2023-01-29T01:09:57.951Z,0.00
2023-01-29T01:10:57.938Z,0.00
2023-01-29T01:11:57.961Z,0.00
2023-01-29T01:12:57.879Z,0.00
2023-01-29T01:13:57.871Z,0.00
2023-01-29T01:14:57.864Z,0.00
2023-01-29T01:15:57.927Z,0.00
2023-01-29T01:16:57.821Z,0.00
2023-01-29T01:17:57.808Z,0.00
2023-01-29T01:18:57.804Z,0.00
2023-01-29T01:19:57.806Z,0.00
2023-01-29T01:20:57.781Z,0.00
2023-01-29T01:21:57.951Z,0.00
2023-01-29T01:22:57.759Z,0.00
2023-01-29T01:23:57.810Z,0.00
2023-01-29T01:24:57.759Z,0.00
2023-01-29T01:25:57.802Z,0.00
2023-01-29T01:26:57.733Z,0.00
2023-01-29T01:27:58.004Z,0.00
2023-01-29T01:28:57.772Z,0.00
2023-01-29T01:29:57.680Z,0.00
2023-01-29T01:30:57.710Z,0.00
2023-01-29T01:31:57.690Z,0.00
2023-01-29T01:32:57.659Z,0.00
2023-01-29T01:33:57.684Z,0.00
2023-01-29T01:34:57.642Z,0.00
2023-01-29T01:35:57.637Z,0.00
2023-01-29T01:36:57.624Z,0.00
2023-01-29T01:37:57.611Z,0.00
2023-01-29T01:38:57.597Z,0.00
2023-01-29T01:39:57.611Z,0.00
2023-01-29T01:40:57.609Z,0.00
2023-01-29T01:41:57.569Z,0.00
2023-01-29T01:42:57.549Z,0.00
2023-01-29T01:43:57.548Z,0.00
2023-01-29T01:44:57.530Z,0.00
2023-01-29T01:45:57.921Z,0.00
2023-01-29T01:46:57.544Z,0.00
2023-01-29T01:47:57.529Z,0.00
2023-01-29T01:48:57.503Z,0.00
2023-01-29T01:49:57.474Z,0.00
2023-01-29T01:50:57.485Z,0.00
2023-01-29T01:51:57.472Z,0.00
2023-01-29T01:52:57.443Z,0.00
2023-01-29T01:53:57.457Z,0.00
2023-01-29T01:54:58.008Z,0.00
2023-01-29T01:55:57.453Z,0.00
2023-01-29T01:56:58.186Z,0.00
2023-01-29T01:57:57.392Z,0.00
2023-01-29T01:58:57.374Z,0.00
2023-01-29T01:59:57.377Z,0.00
2023-01-29T02:00:57.781Z,0.00
2023-01-29T02:01:57.360Z,0.00
2023-01-29T02:02:57.349Z,0.00
2023-01-29T02:03:57.330Z,0.00
2023-01-29T02:04:57.321Z,0.00
2023-01-29T02:05:57.324Z,0.00
2023-01-29T02:06:57.296Z,0.00
2023-01-29T02:07:57.291Z,0.00
2023-01-29T02:08:57.285Z,0.00
2023-01-29T02:09:57.303Z,0.00
2023-01-29T02:10:57.251Z,0.00
2023-01-29T02:11:57.285Z,0.00
2023-01-29T02:12:57.242Z,0.00
2023-01-29T02:13:57.220Z,0.00
2023-01-29T02:14:57.213Z,0.00
2023-01-29T02:15:57.211Z,0.00
2023-01-29T02:16:57.188Z,0.00
2023-01-29T02:17:57.199Z,0.00
2023-01-29T02:18:57.172Z,0.00
2023-01-29T02:19:57.161Z,0.00
2023-01-29T02:20:57.149Z,0.00
2023-01-29T02:21:57.147Z,0.00
2023-01-29T02:22:57.146Z,0.00
2023-01-29T02:23:57.218Z,0.00
2023-01-29T02:24:57.123Z,0.00
2023-01-29T02:25:57.119Z,0.00
2023-01-29T02:26:57.087Z,0.00
2023-01-29T02:27:57.097Z,0.00
2023-01-29T02:28:57.070Z,0.00
2023-01-29T02:29:57.067Z,0.00
2023-01-29T02:30:57.106Z,0.00
2023-01-29T02:31:57.150Z,0.00
2023-01-29T02:32:57.040Z,0.00
2023-01-29T02:33:57.028Z,0.00
2023-01-29T02:34:57.012Z,0.00
2023-01-29T02:35:57.017Z,0.00
2023-01-29T02:36:57.004Z,0.00
2023-01-29T02:37:56.991Z,0.00
2023-01-29T02:38:56.969Z,0.00
2023-01-29T02:39:56.961Z,0.00
2023-01-29T02:40:56.969Z,0.00
2023-01-29T02:41:56.940Z,0.00
2023-01-29T02:42:56.954Z,0.00
2023-01-29T02:43:56.927Z,0.00
2023-01-29T02:44:56.903Z,0.00
2023-01-29T02:45:56.985Z,0.00
2023-01-29T02:46:56.887Z,0.00
2023-01-29T02:47:56.897Z,0.00
2023-01-29T02:48:56.892Z,0.00
2023-01-29T02:49:56.862Z,0.00
2023-01-29T02:50:56.881Z,0.00
2023-01-29T02:51:56.853Z,0.00
2023-01-29T02:52:56.871Z,0.00
2023-01-29T02:53:56.846Z,0.00
2023-01-29T02:54:56.837Z,0.00
2023-01-29T02:55:56.859Z,0.00
2023-01-29T02:56:56.803Z,0.00
2023-01-29T02:57:56.815Z,0.00
2023-01-29T02:58:56.767Z,0.00
2023-01-29T02:59:57.032Z,0.00
2023-01-29T03:00:56.826Z,0.00
2023-01-29T03:01:56.816Z,0.00
2023-01-29T03:02:56.720Z,0.00
2023-01-29T03:03:56.728Z,0.00
2023-01-29T03:04:56.896Z,0.00
2023-01-29T03:05:56.717Z,0.00
2023-01-29T03:06:56.696Z,0.00
2023-01-29T03:07:56.700Z,0.00
2023-01-29T03:08:56.703Z,0.00
2023-01-29T03:09:56.694Z,0.00
2023-01-29T03:10:56.670Z,0.00
2023-01-29T03:11:56.673Z,0.00
2023-01-29T03:12:56.649Z,0.00
2023-01-29T03:13:56.628Z,0.00
2023-01-29T03:14:56.621Z,0.00
2023-01-29T03:15:56.619Z,0.00
2023-01-29T03:16:56.587Z,0.00
2023-01-29T03:17:56.669Z,0.00
2023-01-29T03:18:56.608Z,0.00
2023-01-29T03:19:56.557Z,0.00
2023-01-29T03:20:56.564Z,0.00
2023-01-29T03:21:56.537Z,0.00
2023-01-29T03:22:56.517Z,0.00
2023-01-29T03:23:56.566Z,0.00
2023-01-29T03:24:56.515Z,0.00
2023-01-29T03:25:56.497Z,0.00
2023-01-29T03:26:56.475Z,0.00
2023-01-29T03:27:56.466Z,0.00
2023-01-29T03:28:56.466Z,0.00
2023-01-29T03:29:56.458Z,0.00
2023-01-29T03:30:56.528Z,0.00
2023-01-29T03:31:56.499Z,0.00
2023-01-29T03:32:56.425Z,0.00
2023-01-29T03:33:56.421Z,0.00
2023-01-29T03:34:56.404Z,0.00
2023-01-29T03:35:56.408Z,0.00
2023-01-29T03:36:56.382Z,0.00
2023-01-29T03:37:56.365Z,0.00
2023-01-29T03:38:56.365Z,0.00
2023-01-29T03:39:56.356Z,0.00
2023-01-29T03:40:56.363Z,0.00
2023-01-29T03:41:56.392Z,0.00
2023-01-29T03:42:56.312Z,0.00
2023-01-29T03:43:56.310Z,0.00
2023-01-29T03:44:56.313Z,0.00
2023-01-29T03:45:56.339Z,0.00
2023-01-29T03:46:56.277Z,0.00
2023-01-29T03:47:56.339Z,0.00
2023-01-29T03:48:56.255Z,0.00
2023-01-29T03:49:56.265Z,0.00
2023-01-29T03:50:56.308Z,0.00
2023-01-29T03:51:56.254Z,0.00
2023-01-29T03:52:56.230Z,0.00
2023-01-29T03:53:56.203Z,0.00
2023-01-29T03:54:56.473Z,0.00
2023-01-29T03:55:56.236Z,0.00
2023-01-29T03:56:56.249Z,0.00
2023-01-29T03:57:56.238Z,0.00
2023-01-29T03:58:56.213Z,0.00
2023-01-29T03:59:56.205Z,0.00
2023-01-29T04:00:56.196Z,0.00
2023-01-29T04:01:56.159Z,0.00
2023-01-29T04:02:56.153Z,0.00
2023-01-29T04:03:56.184Z,0.00
2023-01-29T04:04:56.178Z,0.00
2023-01-29T04:05:56.149Z,0.00
2023-01-29T04:06:56.128Z,0.00
2023-01-29T04:07:56.103Z,0.00
2023-01-29T04:08:56.084Z,0.00
2023-01-29T04:09:56.088Z,0.00
2023-01-29T04:10:56.141Z,0.00
2023-01-29T04:11:56.052Z,0.00
2023-01-29T04:12:56.027Z,0.00
2023-01-29T04:13:56.052Z,0.00
2023-01-29T04:14:56.022Z,0.00
2023-01-29T04:15:56.035Z,0.00
2023-01-29T04:16:56.046Z,0.00
2023-01-29T04:17:55.998Z,0.00
2023-01-29T04:18:55.995Z,0.00
2023-01-29T04:19:55.975Z,0.00
2023-01-29T04:20:56.028Z,0.00
2023-01-29T04:21:55.977Z,0.00
2023-01-29T04:22:56.066Z,0.00
2023-01-29T04:23:56.039Z,0.00
2023-01-29T04:24:55.986Z,0.00
2023-01-29T04:25:55.973Z,0.00
2023-01-29T04:26:55.932Z,0.00
2023-01-29T04:27:56.017Z,0.00
2023-01-29T04:28:55.883Z,0.00
2023-01-29T04:29:55.961Z,0.00
2023-01-29T04:30:55.946Z,0.00
2023-01-29T04:31:55.925Z,0.00
2023-01-29T04:32:55.877Z,0.00
2023-01-29T04:33:55.835Z,0.00
2023-01-29T04:34:55.815Z,0.00
2023-01-29T04:35:55.834Z,0.00
2023-01-29T04:36:55.804Z,0.00
2023-01-29T04:37:55.807Z,0.00
2023-01-29T04:38:55.779Z,0.00
2023-01-29T04:39:55.760Z,0.00
2023-01-29T04:40:55.772Z,0.00
2023-01-29T04:41:55.757Z,0.00
2023-01-29T04:42:55.737Z,0.00
2023-01-29T04:43:55.723Z,0.00
2023-01-29T04:44:55.701Z,0.00
2023-01-29T04:45:55.691Z,0.00
2023-01-29T04:46:55.714Z,0.00
2023-01-29T04:47:55.688Z,0.00
2023-01-29T04:48:55.701Z,0.00
2023-01-29T04:49:55.667Z,0.00
2023-01-29T04:50:55.703Z,0.00
2023-01-29T04:51:55.666Z,0.00
2023-01-29T04:52:55.656Z,0.00
2023-01-29T04:53:55.887Z,0.00
2023-01-29T04:54:55.634Z,0.00
2023-01-29T04:55:55.579Z,0.00
2023-01-29T04:56:55.627Z,0.00
2023-01-29T04:57:55.569Z,0.00
2023-01-29T04:58:55.559Z,0.00
2023-01-29T04:59:55.559Z,0.00
2023-01-29T05:00:55.569Z,0.00
2023-01-29T05:01:55.639Z,0.00
2023-01-29T05:02:55.618Z,0.00
2023-01-29T05:03:55.535Z,0.00
2023-01-29T05:04:55.508Z,0.00
2023-01-29T05:05:55.491Z,0.00
2023-01-29T05:06:55.512Z,0.00
2023-01-29T05:07:55.478Z,0.00
2023-01-29T05:08:55.467Z,0.00
2023-01-29T05:09:55.488Z,0.00
2023-01-29T05:10:55.424Z,0.00
2023-01-29T05:11:55.403Z,0.00
2023-01-29T05:12:55.454Z,0.00
2023-01-29T05:13:55.379Z,0.00
2023-01-29T05:14:55.365Z,0.00
2023-01-29T05:15:55.371Z,0.00
2023-01-29T05:16:55.355Z,0.00
2023-01-29T05:17:55.333Z,0.00
2023-01-29T05:18:55.340Z,0.00
2023-01-29T05:19:55.350Z,0.00
2023-01-29T05:20:55.415Z,0.00
2023-01-29T05:21:55.284Z,0.00
2023-01-29T05:22:55.273Z,0.00
2023-01-29T05:23:55.309Z,0.00
2023-01-29T05:24:55.292Z,0.00
2023-01-29T05:25:55.353Z,0.00
2023-01-29T05:26:55.348Z,0.00
2023-01-29T05:27:56.933Z,0.00
2023-01-29T05:28:56.279Z,0.00
2023-01-29T05:29:55.265Z,0.00
2023-01-29T05:30:55.529Z,0.00
2023-01-29T05:31:55.289Z,0.00
2023-01-29T05:32:55.194Z,0.00
2023-01-29T05:33:55.394Z,0.00
2023-01-29T05:34:55.152Z,0.00
2023-01-29T05:35:55.153Z,0.00
2023-01-29T05:36:55.164Z,0.00
2023-01-29T05:37:55.112Z,0.00
2023-01-29T05:38:55.168Z,0.00
2023-01-29T05:39:55.090Z,0.00
2023-01-29T05:40:55.106Z,0.00
2023-01-29T05:41:55.080Z,0.00
2023-01-29T05:42:55.062Z,0.00
2023-01-29T05:43:55.248Z,0.00
2023-01-29T05:44:55.086Z,0.00
2023-01-29T05:45:55.050Z,0.00
2023-01-29T05:46:55.132Z,0.00
2023-01-29T05:47:55.031Z,0.00
2023-01-29T05:48:55.020Z,0.00
2023-01-29T05:49:55.027Z,0.00
2023-01-29T05:50:54.981Z,0.00
2023-01-29T05:51:55.109Z,0.00
2023-01-29T05:52:55.149Z,0.00
2023-01-29T05:53:54.955Z,0.00
2023-01-29T05:54:54.945Z,0.00
2023-01-29T05:55:54.956Z,0.00
2023-01-29T05:56:54.959Z,0.00
2023-01-29T05:57:54.906Z,0.00
2023-01-29T05:58:55.359Z,0.00
2023-01-29T05:59:55.126Z,0.00
2023-01-29T06:00:54.947Z,0.00
2023-01-29T06:01:55.016Z,0.00
2023-01-29T06:02:54.942Z,0.00
2023-01-29T06:03:54.838Z,0.00
2023-01-29T06:04:54.987Z,0.00
2023-01-29T06:05:54.818Z,0.00
2023-01-29T06:06:54.868Z,0.00
2023-01-29T06:07:54.797Z,0.00
2023-01-29T06:08:54.945Z,0.00
2023-01-29T06:09:54.791Z,0.00
2023-01-29T06:10:54.763Z,0.00
2023-01-29T06:11:54.823Z,0.00
2023-01-29T06:12:54.761Z,0.00
2023-01-29T06:13:54.747Z,0.00
2023-01-29T06:14:54.782Z,0.00
2023-01-29T06:15:54.753Z,0.00
2023-01-29T06:16:54.714Z,0.00
2023-01-29T06:17:54.705Z,0.00
2023-01-29T06:18:54.762Z,0.00
2023-01-29T06:19:54.748Z,0.00
2023-01-29T06:20:54.863Z,0.00
2023-01-29T06:21:54.670Z,0.00
2023-01-29T06:22:54.950Z,0.00
2023-01-29T06:23:54.672Z,0.00
2023-01-29T06:24:54.630Z,0.00
2023-01-29T06:25:54.604Z,0.00
2023-01-29T06:26:54.619Z,0.00
2023-01-29T06:27:54.599Z,0.00
2023-01-29T06:28:54.625Z,0.00
2023-01-29T06:29:54.585Z,0.00
2023-01-29T06:30:54.583Z,0.00
2023-01-29T06:31:54.679Z,0.00
2023-01-29T06:32:54.543Z,0.00
2023-01-29T06:33:54.558Z,0.00
2023-01-29T06:34:54.528Z,0.00
2023-01-29T06:35:54.511Z,0.00
2023-01-29T06:36:54.592Z,1.00
2023-01-29T06:37:54.719Z,0.00
2023-01-29T06:38:54.443Z,1.00
2023-01-29T06:39:55.114Z,1.00
2023-01-29T06:40:55.540Z,1.00
2023-01-29T06:41:54.726Z,1.00
2023-01-29T06:42:54.435Z,0.00
2023-01-29T06:43:54.441Z,0.00
2023-01-29T06:44:54.363Z,2.00
2023-01-29T06:45:54.430Z,1.00
2023-01-29T06:46:54.606Z,1.00
2023-01-29T06:47:54.337Z,2.00
2023-01-29T06:48:54.631Z,1.00
2023-01-29T06:49:54.315Z,4.00
2023-01-29T06:50:54.301Z,3.00
2023-01-29T06:51:54.280Z,2.00
2023-01-29T06:52:54.281Z,3.00
2023-01-29T06:53:54.261Z,5.00
2023-01-29T06:54:54.970Z,6.00
2023-01-29T06:55:54.539Z,8.00
2023-01-29T06:56:54.877Z,8.00
2023-01-29T06:57:55.267Z,9.00
2023-01-29T06:58:54.207Z,10.00
2023-01-29T06:59:54.309Z,12.00
2023-01-29T07:00:54.347Z,14.00
2023-01-29T07:01:54.937Z,21.00
2023-01-29T07:02:54.167Z,28.00
2023-01-29T07:03:54.154Z,30.00
2023-01-29T07:04:54.183Z,30.00
2023-01-29T07:05:54.138Z,33.00
2023-01-29T07:06:54.348Z,35.00
2023-01-29T07:07:54.140Z,38.00
2023-01-29T07:08:55.034Z,45.00
2023-01-29T07:09:54.091Z,51.00
2023-01-29T07:10:54.098Z,57.00
2023-01-29T07:11:54.077Z,61.00
2023-01-29T07:12:54.190Z,64.00
2023-01-29T07:13:54.116Z,71.00
2023-01-29T07:14:54.227Z,79.00
2023-01-29T07:15:54.057Z,86.00
2023-01-29T07:16:54.076Z,91.00
2023-01-29T07:17:54.088Z,100.00
2023-01-29T07:18:54.223Z,106.00
2023-01-29T07:19:54.089Z,119.00
2023-01-29T07:20:54.033Z,132.00
2023-01-29T07:21:53.964Z,140.00
2023-01-29T07:22:55.664Z,147.00
2023-01-29T07:23:53.998Z,159.00
2023-01-29T07:24:53.990Z,172.00
2023-01-29T07:25:54.594Z,185.00
2023-01-29T07:26:53.937Z,189.00
2023-01-29T07:27:53.935Z,190.00
2023-01-29T07:28:53.893Z,198.00
2023-01-29T07:29:53.883Z,217.00
2023-01-29T07:30:54.766Z,253.00
2023-01-29T07:31:54.547Z,291.00
2023-01-29T07:32:53.852Z,306.00
2023-01-29T07:33:53.982Z,313.00
2023-01-29T07:34:53.833Z,326.00
2023-01-29T07:35:53.822Z,342.00
2023-01-29T07:36:53.834Z,370.00
2023-01-29T07:37:53.852Z,409.00
2023-01-29T07:38:53.803Z,453.00
2023-01-29T07:39:53.792Z,480.00
2023-01-29T07:40:53.802Z,500.00
2023-01-29T07:41:53.782Z,515.00
2023-01-29T07:42:53.791Z,528.00
2023-01-29T07:43:53.830Z,543.00
2023-01-29T07:44:53.750Z,558.00
2023-01-29T07:45:54.071Z,563.00
2023-01-29T07:46:53.982Z,565.00
2023-01-29T07:47:53.729Z,560.00
2023-01-29T07:48:53.692Z,550.00
2023-01-29T07:49:53.733Z,542.00
2023-01-29T07:50:53.682Z,541.00
2023-01-29T07:51:53.687Z,538.00
2023-01-29T07:52:53.650Z,563.00
2023-01-29T07:53:53.660Z,590.00
2023-01-29T07:54:53.630Z,620.00
2023-01-29T07:55:53.639Z,660.00
2023-01-29T07:56:53.678Z,707.00
2023-01-29T07:57:53.616Z,771.00
2023-01-29T07:58:53.594Z,848.00
2023-01-29T07:59:53.571Z,941.00
2023-01-29T08:00:53.641Z,1039.00
2023-01-29T08:01:53.764Z,1102.00
2023-01-29T08:02:53.597Z,1117.00
2023-01-29T08:03:53.527Z,1130.00
2023-01-29T08:04:53.517Z,1144.00
2023-01-29T08:05:53.505Z,1176.00
2023-01-29T08:06:53.513Z,1196.00
2023-01-29T08:08:05.688Z,1150.00
2023-01-29T08:08:54.489Z,1097.00
2023-01-29T08:09:53.458Z,1046.00
2023-01-29T08:10:53.447Z,1017.00
2023-01-29T08:11:53.480Z,1002.00
2023-01-29T08:12:53.464Z,999.00
2023-01-29T08:13:53.469Z,990.00
2023-01-29T08:14:53.469Z,985.00
2023-01-29T08:15:53.403Z,991.00
2023-01-29T08:16:53.461Z,1014.00
2023-01-29T08:17:58.080Z,1027.00
2023-01-29T08:18:54.371Z,1006.00
2023-01-29T08:19:53.354Z,964.00
2023-01-29T08:20:53.347Z,932.00
2023-01-29T08:21:53.369Z,906.00
2023-01-29T08:22:53.326Z,878.00
2023-01-29T08:23:53.305Z,827.00
2023-01-29T08:24:54.463Z,761.00
2023-01-29T08:25:54.354Z,709.00
2023-01-29T08:26:53.401Z,689.00
2023-01-29T08:27:53.280Z,690.00
2023-01-29T08:28:53.265Z,685.00
2023-01-29T08:29:53.246Z,683.00
2023-01-29T08:30:53.306Z,681.00
2023-01-29T08:31:53.269Z,690.00
2023-01-29T08:32:53.255Z,738.00
2023-01-29T08:33:53.226Z,824.00
2023-01-29T08:34:53.195Z,856.00
2023-01-29T08:35:53.282Z,1041.00
2023-01-29T08:36:53.198Z,1257.00
2023-01-29T08:37:53.167Z,1184.00
2023-01-29T08:38:53.152Z,1105.00
2023-01-29T08:39:53.183Z,1128.00
2023-01-29T08:40:53.184Z,1158.00
2023-01-29T08:41:53.121Z,1089.00
2023-01-29T08:42:53.143Z,1282.00
2023-01-29T08:43:53.101Z,1450.00
2023-01-29T08:44:53.173Z,1424.00
2023-01-29T08:45:53.160Z,1424.00
2023-01-29T08:46:53.090Z,1481.00
2023-01-29T08:47:53.117Z,1567.00
2023-01-29T08:48:53.060Z,1626.00
2023-01-29T08:49:53.055Z,1653.00
2023-01-29T08:50:53.049Z,1659.00
2023-01-29T08:51:53.019Z,1725.00
2023-01-29T08:52:53.104Z,1849.00
2023-01-29T08:53:53.032Z,1852.00
2023-01-29T08:54:53.000Z,1544.00
2023-01-29T08:55:52.993Z,1760.00
2023-01-29T08:56:53.033Z,1830.00
2023-01-29T08:57:53.068Z,1904.00
2023-01-29T08:58:53.008Z,1969.00
2023-01-29T08:59:53.058Z,2033.00
2023-01-29T09:00:53.009Z,2198.00
2023-01-29T09:01:52.980Z,2386.00
2023-01-29T09:02:53.047Z,2348.00
2023-01-29T09:03:53.063Z,2308.00
2023-01-29T09:04:53.021Z,2450.00
2023-01-29T09:05:52.945Z,2721.00
2023-01-29T09:06:52.903Z,2827.00
2023-01-29T09:07:54.222Z,2497.00
2023-01-29T09:08:52.894Z,2391.00
2023-01-29T09:09:52.891Z,2716.00
2023-01-29T09:10:52.854Z,2902.00
2023-01-29T09:11:52.867Z,2864.00
2023-01-29T09:12:52.898Z,2902.00
2023-01-29T09:13:52.816Z,3007.00
2023-01-29T09:14:52.798Z,3147.00
2023-01-29T09:15:52.807Z,3400.00
2023-01-29T09:16:52.827Z,3367.00
2023-01-29T09:17:52.811Z,3441.00
2023-01-29T09:18:52.760Z,3540.00
2023-01-29T09:19:52.800Z,3209.00
2023-01-29T09:20:52.766Z,2799.00
2023-01-29T09:21:52.756Z,2695.00
2023-01-29T09:22:52.838Z,2609.00
2023-01-29T09:23:52.735Z,2483.00
2023-01-29T09:24:52.710Z,2387.00
2023-01-29T09:25:52.762Z,2457.00
2023-01-29T09:26:52.674Z,2748.00
2023-01-29T09:27:52.707Z,2962.00
2023-01-29T09:28:52.669Z,3010.00
2023-01-29T09:29:52.676Z,3252.00
2023-01-29T09:30:52.724Z,3133.00
2023-01-29T09:31:52.737Z,2852.00
2023-01-29T09:32:54.143Z,2655.00
2023-01-29T09:33:52.577Z,2541.00
2023-01-29T09:34:52.615Z,2522.00
2023-01-29T09:35:52.571Z,2408.00
2023-01-29T09:36:52.555Z,2222.00
2023-01-29T09:37:52.713Z,2222.00
2023-01-29T09:38:52.543Z,2375.00
2023-01-29T09:39:52.538Z,2319.00
2023-01-29T09:40:52.501Z,2329.00
2023-01-29T09:41:52.524Z,2386.00
2023-01-29T09:42:52.502Z,2474.00
2023-01-29T09:43:52.471Z,2547.00
2023-01-29T09:44:52.459Z,2460.00
2023-01-29T09:45:52.474Z,2462.00
2023-01-29T09:46:52.464Z,2441.00
2023-01-29T09:47:52.419Z,2570.00
2023-01-29T09:48:52.509Z,2677.00
2023-01-29T09:49:52.509Z,2664.00
2023-01-29T09:50:52.468Z,2589.00
2023-01-29T09:51:52.440Z,2621.00
2023-01-29T09:52:52.389Z,2708.00
2023-01-29T09:53:52.446Z,2727.00
2023-01-29T09:54:52.362Z,2558.00
2023-01-29T09:55:52.391Z,2595.00
2023-01-29T09:56:52.333Z,2779.00
2023-01-29T09:57:52.327Z,2780.00
2023-01-29T09:58:52.360Z,2904.00
2023-01-29T09:59:52.299Z,3069.00
2023-01-29T10:00:52.408Z,3124.00
2023-01-29T10:01:52.424Z,3261.00
2023-01-29T10:02:52.250Z,3438.00
2023-01-29T10:03:52.269Z,3258.00
2023-01-29T10:04:52.281Z,3413.00
2023-01-29T10:05:52.261Z,3684.00
2023-01-29T10:06:52.217Z,3896.00
2023-01-29T10:07:52.208Z,4003.00
2023-01-29T10:08:52.199Z,4028.00
2023-01-29T10:09:52.187Z,4002.00
2023-01-29T10:10:52.169Z,4104.00
2023-01-29T10:11:52.171Z,4195.00
2023-01-29T10:12:52.168Z,4242.00
2023-01-29T10:13:52.146Z,4046.00
2023-01-29T10:14:52.149Z,4003.00
2023-01-29T10:15:52.137Z,3870.00
2023-01-29T10:16:52.173Z,3916.00
2023-01-29T10:17:52.174Z,3938.00
2023-01-29T10:18:52.138Z,3513.00
2023-01-29T10:19:52.125Z,3100.00
2023-01-29T10:20:52.105Z,2962.00
2023-01-29T10:21:52.205Z,3306.00
2023-01-29T10:22:52.058Z,3542.00
2023-01-29T10:23:52.090Z,3747.00
2023-01-29T10:24:52.030Z,4096.00
2023-01-29T10:25:52.787Z,4029.00
2023-01-29T10:26:52.070Z,3873.00
2023-01-29T10:27:52.003Z,3488.00
2023-01-29T10:28:52.013Z,3522.00
2023-01-29T10:29:52.015Z,3901.00
2023-01-29T10:30:52.169Z,4019.00
2023-01-29T10:31:52.059Z,4121.00
2023-01-29T10:32:51.983Z,4192.00
2023-01-29T10:34:01.915Z,4288.00
2023-01-29T10:34:52.976Z,4500.00
2023-01-29T10:35:52.084Z,4636.00
2023-01-29T10:36:51.987Z,4023.00
2023-01-29T10:37:51.983Z,4603.00
2023-01-29T10:38:51.914Z,4480.00
2023-01-29T10:39:51.890Z,4440.00
2023-01-29T10:40:51.898Z,4476.00
2023-01-29T10:41:53.764Z,4535.00
2023-01-29T10:42:51.842Z,4742.00
2023-01-29T10:43:52.077Z,3982.00
2023-01-29T10:44:51.851Z,4354.00
2023-01-29T10:45:51.835Z,3807.00
2023-01-29T10:46:51.860Z,2821.00
2023-01-29T10:47:52.036Z,2239.00
2023-01-29T10:48:51.794Z,2118.00
2023-01-29T10:49:51.761Z,1985.00
2023-01-29T10:50:51.743Z,2116.00
2023-01-29T10:51:51.971Z,2720.00
2023-01-29T10:52:51.732Z,2995.00
2023-01-29T10:53:51.730Z,2980.00
2023-01-29T10:54:51.810Z,3176.00
2023-01-29T10:55:51.705Z,3277.00
2023-01-29T10:56:51.748Z,3145.00
2023-01-29T10:57:51.677Z,3161.00
2023-01-29T10:58:51.669Z,3282.00
2023-01-29T10:59:51.656Z,3341.00
2023-01-29T11:00:51.712Z,3256.00
2023-01-29T11:01:51.692Z,3097.00
2023-01-29T11:02:51.679Z,3161.00
2023-01-29T11:03:51.641Z,3255.00
2023-01-29T11:04:51.589Z,3160.00
2023-01-29T11:05:51.611Z,3118.00
2023-01-29T11:06:51.647Z,2921.00
2023-01-29T11:07:51.744Z,3201.00
2023-01-29T11:08:51.559Z,3554.00
2023-01-29T11:09:51.567Z,3943.00
2023-01-29T11:10:51.557Z,4082.00
2023-01-29T11:11:51.527Z,4168.00
2023-01-29T11:12:51.508Z,4373.00
2023-01-29T11:13:51.516Z,4547.00
2023-01-29T11:14:51.499Z,4641.00
2023-01-29T11:15:51.489Z,4528.00
2023-01-29T11:16:51.498Z,4551.00
2023-01-29T11:17:51.477Z,4665.00
2023-01-29T11:18:51.456Z,4916.00
2023-01-29T11:19:51.455Z,5203.00
2023-01-29T11:20:51.434Z,5054.00
2023-01-29T11:21:51.427Z,4875.00
2023-01-29T11:22:51.395Z,4707.00
2023-01-29T11:23:51.420Z,4556.00
2023-01-29T11:24:51.379Z,4631.00
2023-01-29T11:25:51.375Z,4717.00
2023-01-29T11:26:51.386Z,4583.00
2023-01-29T11:27:51.377Z,4530.00
2023-01-29T11:28:51.358Z,4625.00
2023-01-29T11:29:51.340Z,4731.00
2023-01-29T11:30:51.461Z,4797.00
2023-01-29T11:31:51.384Z,4856.00
2023-01-29T11:32:51.350Z,4871.00
2023-01-29T11:33:51.305Z,4765.00
2023-01-29T11:34:51.323Z,4734.00
2023-01-29T11:35:51.263Z,5109.00
2023-01-29T11:36:51.255Z,5295.00
2023-01-29T11:37:51.296Z,5449.00
2023-01-29T11:38:51.303Z,5391.00
2023-01-29T11:39:51.273Z,5409.00
2023-01-29T11:40:51.223Z,5404.00
2023-01-29T11:41:51.205Z,5034.00
2023-01-29T11:42:51.187Z,5020.00
2023-01-29T11:43:51.193Z,5356.00
2023-01-29T11:44:51.177Z,5247.00
2023-01-29T11:45:51.169Z,5351.00
2023-01-29T11:46:51.150Z,5324.00
2023-01-29T11:47:51.172Z,5055.00
2023-01-29T11:48:51.135Z,5173.00
2023-01-29T11:49:51.169Z,5208.00
2023-01-29T11:50:51.111Z,5284.00
2023-01-29T11:51:51.102Z,5166.00
2023-01-29T11:52:51.093Z,4962.00
2023-01-29T11:53:51.080Z,4969.00
2023-01-29T11:54:51.072Z,4889.00
2023-01-29T11:55:51.199Z,4767.00
2023-01-29T11:56:51.060Z,4823.00
2023-01-29T11:57:51.070Z,4781.00
2023-01-29T11:58:51.019Z,4670.00
2023-01-29T11:59:52.029Z,4750.00
2023-01-29T12:00:51.011Z,5015.00
2023-01-29T12:01:50.990Z,4950.00
2023-01-29T12:02:50.979Z,5142.00
2023-01-29T12:03:51.006Z,5323.00
2023-01-29T12:04:50.962Z,5582.00
2023-01-29T12:05:51.020Z,5300.00
2023-01-29T12:06:50.947Z,5436.00
2023-01-29T12:07:50.928Z,5450.00
2023-01-29T12:08:50.951Z,5078.00
2023-01-29T12:09:50.910Z,4968.00
2023-01-29T12:10:50.897Z,5119.00
2023-01-29T12:11:50.890Z,5077.00
2023-01-29T12:12:50.880Z,5610.00
2023-01-29T12:13:50.889Z,5807.00
2023-01-29T12:14:50.885Z,5315.00
2023-01-29T12:15:51.387Z,5130.00
2023-01-29T12:16:50.827Z,5216.00
2023-01-29T12:17:50.830Z,4960.00
2023-01-29T12:18:50.858Z,5291.00
2023-01-29T12:19:50.818Z,5538.00
2023-01-29T12:20:50.797Z,5205.00
2023-01-29T12:21:50.817Z,5293.00
2023-01-29T12:22:50.771Z,5061.00
2023-01-29T12:23:50.792Z,4859.00
2023-01-29T12:24:50.760Z,4783.00
2023-01-29T12:25:50.749Z,4848.00
2023-01-29T12:26:50.760Z,4805.00
2023-01-29T12:27:50.755Z,4900.00
2023-01-29T12:28:50.723Z,4910.00
2023-01-29T12:29:50.857Z,5062.00
2023-01-29T12:30:50.779Z,5010.00
2023-01-29T12:31:50.686Z,5023.00
2023-01-29T12:32:50.669Z,5090.00
2023-01-29T12:33:50.703Z,5152.00
2023-01-29T12:34:50.665Z,5198.00
2023-01-29T12:35:50.659Z,5018.00
2023-01-29T12:36:50.642Z,5060.00
2023-01-29T12:37:50.613Z,4973.00
2023-01-29T12:38:50.631Z,5202.00
2023-01-29T12:39:50.681Z,5275.00
2023-01-29T12:40:50.617Z,5189.00
2023-01-29T12:41:50.641Z,5081.00
2023-01-29T12:42:50.604Z,4989.00
2023-01-29T12:43:50.683Z,5138.00
2023-01-29T12:44:50.585Z,5063.00
2023-01-29T12:45:50.574Z,5106.00
2023-01-29T12:46:50.851Z,4841.00